createdAt,value
2022-12-08T00:00:05.762Z,18.67
2022-12-08T00:02:33.016Z,18.13
2022-12-08T00:05:19.029Z,15.32
2022-12-08T00:08:04.945Z,17.38
2022-12-08T00:10:49.336Z,15.48
2022-12-08T00:13:17.088Z,17.60
2022-12-08T00:15:44.264Z,17.02
2022-12-08T00:18:11.330Z,17.95
2022-12-08T00:20:38.406Z,16.08
2022-12-08T00:23:05.576Z,17.20
2022-12-08T00:25:32.754Z,18.02
2022-12-08T00:27:59.814Z,15.90
2022-12-08T00:30:26.925Z,17.90
2022-12-08T00:32:54.005Z,16.05
2022-12-08T00:35:21.060Z,15.65
2022-12-08T00:37:48.198Z,16.17
2022-12-08T00:40:15.316Z,17.10
2022-12-08T00:42:42.383Z,15.90
2022-12-08T00:45:09.668Z,14.68
2022-12-08T00:47:36.749Z,15.30
2022-12-08T00:50:04.853Z,17.05
2022-12-08T00:52:32.202Z,16.88
2022-12-08T00:54:59.255Z,15.77
2022-12-08T00:57:26.299Z,16.40
2022-12-08T00:59:53.434Z,14.60
2022-12-08T01:02:20.510Z,16.73
2022-12-08T01:04:47.567Z,15.30
2022-12-08T01:07:14.737Z,15.32
2022-12-08T01:09:41.826Z,15.88
2022-12-08T01:12:08.978Z,14.45
2022-12-08T01:14:37.184Z,14.88
2022-12-08T01:17:04.334Z,14.77
2022-12-08T01:19:31.520Z,15.95
2022-12-08T01:21:58.739Z,18.13
2022-12-08T01:24:25.854Z,17.75
2022-12-08T01:26:52.928Z,17.52
2022-12-08T01:29:20.276Z,20.60
2022-12-08T01:31:47.365Z,19.15
2022-12-08T01:34:14.448Z,21.27
2022-12-08T01:36:42.204Z,19.92
2022-12-08T01:39:11.559Z,17.25
2022-12-08T01:41:39.014Z,18.33
2022-12-08T01:44:08.962Z,17.85
2022-12-08T01:46:37.155Z,16.80
2022-12-08T01:49:07.492Z,16.45
2022-12-08T01:51:37.924Z,14.88
2022-12-08T01:54:06.335Z,15.10
2022-12-08T01:56:36.716Z,15.38
2022-12-08T01:59:04.224Z,15.95
2022-12-08T02:01:31.428Z,15.10
2022-12-08T02:03:59.502Z,17.33
2022-12-08T02:06:27.815Z,15.95
2022-12-08T02:08:55.228Z,15.52
2022-12-08T02:11:22.302Z,17.13
2022-12-08T02:13:50.928Z,17.45
2022-12-08T02:16:29.967Z,15.75
2022-12-08T02:19:30.396Z,16.60
2022-12-08T02:22:01.356Z,15.95
2022-12-08T02:24:36.279Z,16.92
2022-12-08T02:27:23.865Z,15.98
2022-12-08T02:30:03.591Z,15.00
2022-12-08T02:32:30.849Z,15.68
2022-12-08T02:34:58.112Z,17.17
2022-12-08T02:37:33.584Z,16.08
2022-12-08T02:40:04.420Z,16.42
2022-12-08T02:42:35.942Z,17.45
2022-12-08T02:47:31.133Z,17.27
2022-12-08T02:49:58.749Z,18.52
2022-12-08T02:52:25.856Z,18.35
2022-12-08T02:55:04.107Z,17.77
2022-12-08T02:57:49.572Z,17.13
2022-12-08T03:00:18.362Z,17.25
2022-12-08T03:02:51.364Z,16.98
2022-12-08T03:05:18.551Z,16.75
2022-12-08T03:07:49.547Z,16.85
2022-12-08T03:10:19.500Z,17.60
2022-12-08T03:12:50.385Z,18.17
2022-12-08T03:15:19.134Z,19.52
2022-12-08T03:17:51.632Z,20.45
2022-12-08T03:20:23.074Z,19.27
2022-12-08T03:25:18.574Z,19.63
2022-12-08T03:27:45.694Z,18.48
2022-12-08T03:30:12.996Z,18.73
2022-12-08T03:32:44.516Z,18.10
2022-12-08T03:35:14.367Z,19.02
2022-12-08T03:37:41.853Z,18.15
2022-12-08T03:40:10.361Z,18.27
2022-12-08T03:42:37.544Z,16.98
2022-12-08T03:45:05.186Z,16.23
2022-12-08T03:47:32.356Z,15.55
2022-12-08T03:49:59.412Z,16.95
2022-12-08T03:52:26.488Z,16.98
2022-12-08T03:54:53.626Z,16.75
2022-12-08T03:57:21.646Z,16.23
2022-12-08T03:59:48.727Z,18.17
2022-12-08T04:02:16.022Z,17.02
2022-12-08T04:04:43.157Z,16.52
2022-12-08T04:07:10.223Z,16.63
2022-12-08T04:09:38.960Z,17.95
2022-12-08T04:12:06.110Z,18.55
2022-12-08T04:14:33.173Z,17.77
2022-12-08T04:17:00.323Z,17.02
2022-12-08T04:19:27.433Z,19.13
2022-12-08T04:21:54.520Z,17.88
2022-12-08T04:24:21.646Z,15.68
2022-12-08T04:26:49.761Z,17.40
2022-12-08T04:29:16.961Z,16.67
2022-12-08T04:31:44.511Z,16.58
2022-12-08T04:34:11.697Z,15.95
2022-12-08T04:36:38.754Z,16.67
2022-12-08T04:39:05.953Z,17.05
2022-12-08T04:41:33.036Z,17.33
2022-12-08T04:44:00.096Z,16.55
2022-12-08T04:46:27.306Z,18.20
2022-12-08T04:48:54.411Z,18.00
2022-12-08T04:51:22.645Z,17.48
2022-12-08T04:53:49.893Z,16.58
2022-12-08T04:56:17.958Z,18.45
2022-12-08T04:58:45.398Z,17.88
2022-12-08T05:01:12.825Z,17.63
2022-12-08T05:03:39.986Z,19.65
2022-12-08T05:06:07.443Z,18.25
2022-12-08T05:08:34.734Z,17.85
2022-12-08T05:11:02.615Z,19.42
2022-12-08T05:13:29.714Z,20.00
2022-12-08T05:16:02.698Z,20.52
2022-12-08T05:18:29.793Z,19.80
2022-12-08T05:20:56.899Z,19.20
2022-12-08T05:23:24.072Z,19.83
2022-12-08T05:25:51.151Z,20.40
2022-12-08T05:28:40.896Z,19.42
2022-12-08T05:31:05.496Z,19.90
2022-12-08T05:33:32.612Z,19.42
2022-12-08T05:35:59.673Z,20.58
2022-12-08T05:38:26.944Z,19.13
2022-12-08T05:40:54.000Z,21.55
2022-12-08T05:43:21.088Z,22.40
2022-12-08T05:45:49.627Z,22.00
2022-12-08T05:48:17.167Z,21.48
2022-12-08T05:50:47.978Z,22.80
2022-12-08T05:53:15.679Z,23.67
2022-12-08T05:55:42.823Z,22.80
2022-12-08T05:58:12.724Z,24.25
2022-12-08T06:00:39.934Z,21.38
2022-12-08T06:03:07.149Z,21.27
2022-12-08T06:05:35.062Z,20.50
2022-12-08T06:08:02.493Z,19.95
2022-12-08T06:10:29.725Z,19.40
2022-12-08T06:12:56.805Z,19.58
2022-12-08T06:15:24.028Z,19.75
2022-12-08T06:17:51.079Z,18.38
2022-12-08T06:20:18.284Z,18.77
2022-12-08T06:22:45.740Z,19.90
2022-12-08T06:25:12.910Z,18.40
2022-12-08T06:27:39.979Z,18.80
2022-12-08T06:30:07.769Z,18.75
2022-12-08T06:32:35.044Z,19.25
2022-12-08T06:35:02.138Z,19.83
2022-12-08T06:37:29.600Z,20.35
2022-12-08T06:39:56.947Z,20.25
2022-12-08T06:42:42.827Z,20.05
2022-12-08T06:45:10.514Z,20.60
2022-12-08T06:47:37.586Z,18.05
2022-12-08T06:50:05.712Z,17.90
2022-12-08T06:52:33.029Z,19.65
2022-12-08T06:55:00.144Z,19.08
2022-12-08T06:57:27.310Z,17.88
2022-12-08T06:59:54.425Z,18.65
2022-12-08T07:02:21.517Z,19.60
2022-12-08T07:04:48.814Z,20.95
2022-12-08T07:07:15.867Z,19.52
2022-12-08T07:09:42.921Z,20.10
2022-12-08T07:12:10.152Z,19.60
2022-12-08T07:14:37.246Z,20.80
2022-12-08T07:17:04.597Z,19.55
2022-12-08T07:19:31.830Z,20.02
2022-12-08T07:21:58.905Z,19.95
2022-12-08T07:24:26.102Z,22.60
2022-12-08T07:26:53.265Z,25.83
2022-12-08T07:29:24.705Z,25.83
2022-12-08T07:31:53.539Z,25.45
2022-12-08T07:34:20.613Z,22.67
2022-12-08T07:36:47.690Z,24.38
2022-12-08T07:39:14.844Z,26.35
2022-12-08T07:41:41.973Z,24.25
2022-12-08T07:44:09.760Z,23.65
2022-12-08T07:46:36.930Z,20.85
2022-12-08T07:49:04.112Z,21.95
2022-12-08T07:51:31.192Z,20.63
2022-12-08T07:53:58.324Z,23.10
2022-12-08T07:56:25.487Z,22.83
2022-12-08T07:58:52.636Z,22.52
2022-12-08T08:01:24.732Z,22.52
2022-12-08T08:03:51.979Z,21.33
2022-12-08T08:06:19.082Z,19.63
2022-12-08T08:08:46.311Z,19.85
2022-12-08T08:11:20.954Z,19.08
2022-12-08T08:13:48.736Z,20.10
2022-12-08T08:16:16.004Z,19.63
2022-12-08T08:18:43.572Z,21.27
2022-12-08T08:23:57.868Z,24.08
2022-12-08T08:26:25.179Z,21.88
2022-12-08T08:28:52.247Z,23.73
2022-12-08T08:31:19.312Z,26.05
2022-12-08T08:33:48.767Z,22.63
2022-12-08T08:36:15.822Z,23.60
2022-12-08T08:38:44.196Z,23.15
2022-12-08T08:41:11.805Z,22.50
2022-12-08T08:43:39.135Z,21.27
2022-12-08T08:46:07.054Z,22.42
2022-12-08T08:48:34.314Z,22.10
2022-12-08T08:51:08.311Z,22.17
2022-12-08T08:53:35.558Z,23.23
2022-12-08T08:56:05.078Z,21.27
2022-12-08T08:58:32.143Z,19.00
2022-12-08T09:00:59.309Z,20.73
2022-12-08T09:03:26.701Z,19.92
2022-12-08T09:05:53.853Z,20.50
2022-12-08T09:08:21.120Z,21.50
2022-12-08T09:10:48.247Z,21.67
2022-12-08T09:13:15.383Z,24.05
2022-12-08T09:15:42.668Z,22.83
2022-12-08T09:18:09.817Z,22.38
2022-12-08T09:20:36.916Z,26.20
2022-12-08T09:23:04.165Z,28.75
2022-12-08T09:25:31.263Z,29.15
2022-12-08T09:27:58.348Z,27.23
2022-12-08T09:30:25.673Z,27.75
2022-12-08T09:32:52.757Z,27.67
2022-12-08T09:35:19.901Z,29.60
2022-12-08T09:37:47.046Z,29.17
2022-12-08T09:40:17.660Z,33.15
2022-12-08T09:43:20.137Z,31.83
2022-12-08T09:45:47.977Z,33.45
2022-12-08T09:48:17.774Z,33.08
2022-12-08T09:50:47.803Z,34.05
2022-12-08T09:53:24.080Z,28.38
2022-12-08T09:55:52.623Z,25.92
2022-12-08T09:58:28.294Z,27.10
2022-12-08T10:00:55.640Z,23.98
2022-12-08T10:03:25.062Z,24.83
2022-12-08T10:06:07.560Z,23.92
2022-12-08T10:08:40.771Z,24.70
2022-12-08T10:11:16.238Z,26.50
2022-12-08T10:13:50.593Z,26.48
2022-12-08T10:16:39.285Z,26.15
2022-12-08T10:19:18.942Z,26.20
2022-12-08T10:21:46.436Z,25.48
2022-12-08T10:24:16.853Z,24.60
2022-12-08T10:26:44.004Z,22.40
2022-12-08T10:29:14.722Z,23.73
2022-12-08T10:31:42.305Z,24.77
2022-12-08T10:34:17.758Z,24.40
2022-12-08T10:36:47.060Z,25.33
2022-12-08T10:39:33.976Z,24.35
2022-12-08T10:42:02.244Z,27.73
2022-12-08T10:44:29.561Z,26.77
2022-12-08T10:46:56.905Z,27.70
2022-12-08T10:49:29.835Z,28.15
2022-12-08T10:51:57.892Z,27.33
2022-12-08T10:54:36.226Z,27.98
2022-12-08T10:57:03.626Z,28.95
2022-12-08T10:59:33.777Z,27.80
2022-12-08T11:02:01.431Z,27.63
2022-12-08T11:04:38.449Z,26.02
2022-12-08T11:07:06.898Z,26.15
2022-12-08T11:09:48.776Z,26.23
2022-12-08T11:12:16.758Z,26.90
2022-12-08T11:14:43.814Z,29.88
2022-12-08T11:17:16.808Z,30.15
2022-12-08T11:19:55.779Z,31.67
2022-12-08T11:22:33.568Z,32.83
2022-12-08T11:25:11.502Z,33.53
2022-12-08T11:27:46.516Z,34.45
2022-12-08T11:30:21.230Z,31.92
2022-12-08T11:32:50.088Z,34.05
2022-12-08T11:35:23.502Z,28.77
2022-12-08T11:37:50.764Z,26.08
2022-12-08T11:40:25.545Z,24.48
2022-12-08T11:42:59.285Z,24.70
2022-12-08T11:45:28.587Z,25.63
2022-12-08T11:48:16.094Z,25.55
2022-12-08T11:50:46.112Z,25.17
2022-12-08T11:53:19.323Z,27.70
2022-12-08T11:55:50.357Z,24.65
2022-12-08T11:58:19.532Z,25.60
2022-12-08T12:00:46.807Z,25.08
2022-12-08T12:03:34.396Z,24.52
2022-12-08T12:09:17.429Z,27.05
2022-12-08T12:12:16.647Z,25.02
2022-12-08T12:14:46.656Z,23.35
2022-12-08T12:17:26.055Z,22.25
2022-12-08T12:19:54.093Z,21.85
2022-12-08T12:22:22.664Z,22.55
2022-12-08T12:24:51.668Z,22.83
2022-12-08T12:27:28.764Z,24.63
2022-12-08T12:30:00.664Z,23.90
2022-12-08T12:32:40.537Z,28.27
2022-12-08T12:35:15.098Z,26.98
2022-12-08T12:37:43.387Z,28.63
2022-12-08T12:40:16.631Z,30.13
2022-12-08T12:43:12.668Z,26.17
2022-12-08T12:45:44.758Z,25.98
2022-12-08T12:48:21.534Z,25.67
2022-12-08T12:50:51.797Z,27.15
2022-12-08T12:53:19.055Z,26.05
2022-12-08T12:55:46.443Z,27.95
2022-12-08T12:58:21.248Z,24.92
2022-12-08T13:00:48.950Z,28.88
2022-12-08T13:03:17.290Z,24.92
2022-12-08T13:05:52.366Z,29.00
2022-12-08T13:08:21.572Z,26.70
2022-12-08T13:10:57.640Z,24.92
2022-12-08T13:13:24.755Z,28.35
2022-12-08T13:16:18.807Z,25.25
2022-12-08T13:18:59.624Z,26.58
2022-12-08T13:21:32.842Z,30.33
2022-12-08T13:24:17.713Z,30.80
2022-12-08T13:26:46.122Z,27.08
2022-12-08T13:29:18.360Z,25.30
2022-12-08T13:31:50.587Z,26.83
2022-12-08T13:34:21.337Z,27.55
2022-12-08T13:36:51.624Z,26.77
2022-12-08T13:39:24.810Z,27.85
2022-12-08T13:41:58.424Z,24.08
2022-12-08T13:47:33.955Z,27.40
2022-12-08T13:51:24.001Z,27.25
2022-12-08T13:56:59.345Z,27.25
2022-12-08T13:58:40.739Z,27.02
2022-12-08T14:01:09.793Z,30.65
2022-12-08T14:04:28.387Z,32.80
2022-12-08T14:06:42.373Z,32.00
2022-12-08T14:09:16.084Z,34.65
2022-12-08T14:11:50.352Z,26.73
2022-12-08T14:15:00.574Z,28.38
2022-12-08T14:17:17.326Z,29.52
2022-12-08T14:19:45.675Z,27.13
2022-12-08T14:22:14.479Z,25.35
2022-12-08T14:24:45.045Z,26.20
2022-12-08T14:27:14.629Z,28.00
2022-12-08T14:29:43.627Z,26.88
2022-12-08T14:32:26.101Z,32.03
2022-12-08T14:34:54.151Z,28.15
2022-12-08T14:37:21.699Z,33.42
2022-12-08T14:39:49.389Z,31.33
2022-12-08T14:42:22.493Z,31.75
2022-12-08T14:44:49.840Z,32.92
2022-12-08T14:47:21.099Z,35.72
2022-12-08T14:49:48.166Z,32.00
2022-12-08T14:52:15.427Z,29.77
2022-12-08T14:54:43.433Z,30.20
2022-12-08T14:57:12.567Z,35.88
2022-12-08T14:59:40.134Z,36.15
2022-12-08T15:02:24.146Z,30.17
2022-12-08T15:04:57.303Z,35.22
2022-12-08T15:07:25.918Z,30.73
2022-12-08T15:10:10.633Z,36.53
2022-12-08T15:12:37.869Z,36.10
2022-12-08T15:15:11.382Z,37.75
2022-12-08T15:17:43.007Z,36.72
2022-12-08T15:20:34.792Z,34.63
2022-12-08T15:23:02.744Z,32.22
2022-12-08T15:25:30.017Z,31.05
2022-12-08T15:27:57.967Z,30.45
2022-12-08T15:30:28.931Z,27.27
2022-12-08T15:32:56.465Z,31.92
2022-12-08T15:35:24.847Z,31.17
2022-12-08T15:37:52.002Z,32.75
2022-12-08T15:40:20.407Z,32.08
2022-12-08T15:42:48.831Z,31.40
2022-12-08T15:45:16.775Z,33.85
2022-12-08T15:47:44.485Z,28.33
2022-12-08T15:50:19.227Z,28.98
2022-12-08T15:52:46.769Z,26.35
2022-12-08T15:55:18.012Z,28.02
2022-12-08T15:58:45.005Z,27.92
2022-12-08T16:00:53.034Z,25.67
2022-12-08T16:04:02.649Z,26.08
2022-12-08T16:07:19.170Z,24.08
2022-12-08T16:09:11.795Z,22.60
2022-12-08T16:12:08.264Z,22.33
2022-12-08T16:17:24.764Z,24.48
2022-12-08T16:19:52.239Z,23.88
2022-12-08T16:25:18.715Z,24.83
2022-12-08T16:30:34.528Z,23.50
2022-12-08T16:33:01.901Z,23.80
2022-12-08T16:35:29.032Z,24.92
2022-12-08T16:37:56.257Z,25.63
2022-12-08T16:40:23.447Z,27.67
2022-12-08T16:42:50.769Z,26.25
2022-12-08T16:45:19.417Z,27.15
2022-12-08T16:47:59.396Z,27.02
2022-12-08T16:50:33.691Z,26.48
2022-12-08T16:53:05.325Z,27.30
2022-12-08T16:55:33.025Z,30.35
2022-12-08T16:58:00.392Z,29.08
2022-12-08T17:00:28.831Z,24.00
2022-12-08T17:02:56.308Z,25.40
2022-12-08T17:05:25.421Z,28.48
2022-12-08T17:07:53.346Z,23.85
2022-12-08T17:10:22.978Z,24.27
2022-12-08T17:12:50.439Z,24.00
2022-12-08T17:15:18.799Z,23.05
2022-12-08T17:17:45.879Z,24.27
2022-12-08T17:20:15.003Z,25.88
2022-12-08T17:22:42.081Z,19.00
2022-12-08T17:25:09.355Z,15.35
2022-12-08T17:27:36.927Z,15.95
2022-12-08T17:30:05.200Z,16.90
2022-12-08T17:32:32.622Z,20.85
2022-12-08T17:34:59.967Z,19.02
2022-12-08T17:37:27.044Z,17.95
2022-12-08T17:39:54.302Z,23.35
2022-12-08T17:42:25.946Z,23.40
2022-12-08T17:44:53.313Z,25.58
2022-12-08T17:47:20.434Z,25.10
2022-12-08T17:49:47.701Z,23.70
2022-12-08T17:52:14.818Z,24.73
2022-12-08T17:54:41.896Z,25.20
2022-12-08T17:57:09.070Z,25.40
2022-12-08T17:59:36.178Z,24.45
2022-12-08T18:02:04.416Z,28.02
2022-12-08T18:04:31.991Z,26.05
2022-12-08T18:07:01.197Z,24.92
2022-12-08T18:09:30.224Z,27.13
2022-12-08T18:11:57.499Z,25.52
2022-12-08T18:14:24.642Z,29.98
2022-12-08T18:16:51.827Z,30.45
2022-12-08T18:19:19.206Z,27.52
2022-12-08T18:21:46.269Z,29.83
2022-12-08T18:24:18.162Z,28.77
2022-12-08T18:26:45.440Z,31.55
2022-12-08T18:29:12.637Z,31.23
2022-12-08T18:31:39.725Z,27.00
2022-12-08T18:34:06.942Z,30.45
2022-12-08T18:36:34.264Z,33.65
2022-12-08T18:39:04.577Z,28.52
2022-12-08T18:41:36.009Z,31.73
2022-12-08T18:44:03.081Z,31.38
2022-12-08T18:46:30.436Z,33.15
2022-12-08T18:48:58.160Z,34.35
2022-12-08T18:51:25.276Z,29.48
2022-12-08T18:53:52.797Z,29.35
2022-12-08T18:56:27.160Z,25.02
2022-12-08T18:58:59.880Z,24.52
2022-12-08T19:01:30.068Z,26.50
2022-12-08T19:04:26.635Z,24.85
2022-12-08T19:06:46.128Z,24.52
2022-12-08T19:09:14.023Z,23.58
2022-12-08T19:11:41.173Z,22.60
2022-12-08T19:14:08.331Z,19.55
2022-12-08T19:16:35.932Z,20.90
2022-12-08T19:19:03.173Z,20.15
2022-12-08T19:21:30.429Z,24.10
2022-12-08T19:23:58.564Z,21.48
2022-12-08T19:26:26.591Z,22.33
2022-12-08T19:28:53.771Z,20.95
2022-12-08T19:31:20.886Z,23.23
2022-12-08T19:33:48.073Z,17.92
2022-12-08T19:36:19.900Z,20.88
2022-12-08T19:39:05.803Z,17.67
2022-12-08T19:41:51.924Z,18.23
2022-12-08T19:44:45.089Z,17.05
2022-12-08T19:47:12.451Z,16.50
2022-12-08T19:49:39.588Z,16.13
2022-12-08T19:52:06.979Z,16.33
2022-12-08T19:54:34.247Z,14.65
2022-12-08T19:57:01.918Z,14.95
2022-12-08T19:59:30.236Z,13.45
2022-12-08T20:02:00.621Z,12.80
2022-12-08T20:04:28.143Z,11.63
2022-12-08T20:06:56.037Z,11.90
2022-12-08T20:09:24.190Z,12.68
2022-12-08T20:11:54.455Z,12.98
2022-12-08T20:14:22.660Z,13.32
2022-12-08T20:16:50.441Z,13.35
2022-12-08T20:19:17.747Z,14.95
2022-12-08T20:21:44.872Z,15.25
2022-12-08T20:24:12.084Z,16.10
2022-12-08T20:26:39.471Z,17.80
2022-12-08T20:29:06.574Z,17.40
2022-12-08T20:31:34.281Z,15.90
2022-12-08T20:34:01.812Z,16.38
2022-12-08T20:36:29.240Z,17.05
2022-12-08T20:38:56.776Z,17.00
2022-12-08T20:41:24.384Z,17.58
2022-12-08T20:43:52.419Z,18.92
2022-12-08T20:46:20.374Z,19.52
2022-12-08T20:48:47.569Z,17.63
2022-12-08T20:51:23.754Z,21.40
2022-12-08T20:53:54.337Z,23.75
2022-12-08T20:56:22.729Z,23.77
2022-12-08T20:58:50.984Z,23.35
2022-12-08T21:01:19.718Z,26.15
2022-12-08T21:03:47.741Z,22.08
2022-12-08T21:06:15.767Z,23.40
2022-12-08T21:08:43.417Z,21.13
2022-12-08T21:11:10.729Z,18.77
2022-12-08T21:13:38.592Z,18.50
2022-12-08T21:16:11.773Z,18.40
2022-12-08T21:18:39.872Z,16.38
2022-12-08T21:21:11.914Z,18.20
2022-12-08T21:23:39.340Z,15.68
2022-12-08T21:26:17.219Z,15.30
2022-12-08T21:28:44.747Z,15.73
2022-12-08T21:31:13.386Z,16.33
2022-12-08T21:33:40.883Z,17.90
2022-12-08T21:36:11.355Z,18.08
2022-12-08T21:38:39.441Z,17.40
2022-12-08T21:41:08.244Z,17.92
2022-12-08T21:43:35.781Z,17.85
2022-12-08T21:46:03.005Z,17.15
2022-12-08T21:48:30.455Z,21.33
2022-12-08T21:50:58.086Z,21.20
2022-12-08T21:53:26.477Z,25.38
2022-12-08T21:55:53.736Z,21.50
2022-12-08T21:58:20.960Z,19.02
2022-12-08T22:00:48.141Z,18.55
2022-12-08T22:03:16.080Z,19.27
2022-12-08T22:05:43.468Z,19.73
2022-12-08T22:08:10.736Z,17.02
2022-12-08T22:10:38.394Z,17.20
2022-12-08T22:13:05.627Z,17.15
2022-12-08T22:15:33.086Z,17.30
2022-12-08T22:18:00.388Z,16.67
2022-12-08T22:20:27.822Z,16.73
2022-12-08T22:22:55.018Z,17.27
2022-12-08T22:25:22.250Z,18.13
2022-12-08T22:27:49.386Z,17.50
2022-12-08T22:30:19.556Z,18.85
2022-12-08T22:32:52.889Z,19.70
2022-12-08T22:35:20.270Z,18.63
2022-12-08T22:37:50.477Z,18.95
2022-12-08T22:40:17.749Z,18.17
2022-12-08T22:42:45.238Z,17.25
2022-12-08T22:45:12.654Z,19.90
2022-12-08T22:47:40.050Z,19.50
2022-12-08T22:50:07.906Z,18.95
2022-12-08T22:52:35.510Z,17.70
2022-12-08T22:55:02.874Z,19.15
2022-12-08T22:57:30.037Z,19.20
2022-12-08T22:59:57.233Z,17.90
2022-12-08T23:02:24.376Z,17.70
2022-12-08T23:04:51.599Z,19.75
2022-12-08T23:07:19.033Z,19.20
2022-12-08T23:09:46.323Z,18.65
2022-12-08T23:12:13.629Z,19.23
2022-12-08T23:14:40.718Z,19.77
2022-12-08T23:17:08.205Z,20.50
2022-12-08T23:19:38.867Z,19.02
2022-12-08T23:22:06.216Z,18.63
2022-12-08T23:24:33.467Z,19.35
2022-12-08T23:27:00.727Z,21.45
2022-12-08T23:29:27.858Z,18.52
2022-12-08T23:31:55.088Z,19.63
2022-12-08T23:34:22.662Z,21.70
2022-12-08T23:36:50.055Z,21.17
2022-12-08T23:39:18.608Z,21.40
2022-12-08T23:41:46.165Z,18.70
2022-12-08T23:44:13.659Z,16.67
2022-12-08T23:46:41.152Z,17.30
2022-12-08T23:49:08.435Z,18.92
2022-12-08T23:51:35.839Z,18.17
2022-12-08T23:54:05.764Z,21.08
2022-12-08T23:56:32.841Z,18.42
2022-12-08T23:59:15.305Z,18.73
